createdAt,value
2022-08-20T00:02:26.134Z,99.90
2022-08-20T00:04:59.715Z,99.90
2022-08-20T00:07:33.143Z,99.90
2022-08-20T00:10:08.767Z,99.90
2022-08-20T00:12:46.679Z,99.90
2022-08-20T00:15:26.142Z,99.90
2022-08-20T00:18:00.254Z,99.90
2022-08-20T00:20:37.054Z,99.90
2022-08-20T00:23:12.813Z,99.90
2022-08-20T00:25:46.953Z,99.90
2022-08-20T00:28:20.989Z,99.90
2022-08-20T00:30:55.812Z,99.90
2022-08-20T00:33:29.286Z,99.90
2022-08-20T00:36:07.123Z,99.90
2022-08-20T00:38:43.017Z,99.90
2022-08-20T00:41:21.428Z,99.90
2022-08-20T00:44:09.425Z,99.90
2022-08-20T00:46:45.281Z,99.90
2022-08-20T00:49:22.281Z,99.90
2022-08-20T00:52:00.361Z,99.90
2022-08-20T00:54:39.313Z,99.90
2022-08-20T00:57:19.911Z,99.90
2022-08-20T00:59:54.650Z,99.90
2022-08-20T01:02:32.383Z,99.90
2022-08-20T01:05:08.254Z,99.90
2022-08-20T01:07:42.523Z,99.90
2022-08-20T01:10:19.398Z,99.90
2022-08-20T01:12:54.918Z,99.90
2022-08-20T01:15:33.222Z,99.90
2022-08-20T01:18:12.348Z,99.90
2022-08-20T01:20:49.535Z,99.90
2022-08-20T01:23:30.375Z,99.90
2022-08-20T01:26:10.732Z,99.90
2022-08-20T01:28:46.635Z,99.90
2022-08-20T01:31:23.711Z,99.90
2022-08-20T01:33:58.952Z,99.90
2022-08-20T01:36:44.276Z,99.90
2022-08-20T01:39:38.993Z,99.90
2022-08-20T01:42:19.544Z,99.90
2022-08-20T01:44:53.287Z,99.90
2022-08-20T01:47:38.325Z,99.90
2022-08-20T01:50:36.035Z,99.90
2022-08-20T01:53:16.166Z,99.90
2022-08-20T01:55:49.612Z,99.90
2022-08-20T01:58:24.776Z,99.90
2022-08-20T02:00:59.444Z,99.90
2022-08-20T02:03:37.505Z,99.90
2022-08-20T02:06:13.576Z,99.90
2022-08-20T02:08:47.034Z,99.90
2022-08-20T02:11:21.337Z,99.90
2022-08-20T02:13:57.764Z,99.90
2022-08-20T02:16:34.462Z,99.90
2022-08-20T02:19:12.615Z,99.90
2022-08-20T02:21:48.803Z,99.90
2022-08-20T02:24:23.340Z,99.90
2022-08-20T02:26:57.003Z,99.90
2022-08-20T02:29:32.193Z,99.90
2022-08-20T02:32:25.155Z,99.90
2022-08-20T02:35:03.374Z,99.90
2022-08-20T02:37:37.433Z,99.90
2022-08-20T02:40:14.624Z,99.90
2022-08-20T02:42:48.353Z,99.90
2022-08-20T02:45:25.227Z,99.90
2022-08-20T02:47:59.460Z,99.90
2022-08-20T02:50:32.873Z,99.90
2022-08-20T02:53:06.465Z,99.90
2022-08-20T02:55:40.148Z,99.90
2022-08-20T02:58:14.122Z,99.90
2022-08-20T03:00:49.908Z,99.90
2022-08-20T03:03:24.479Z,99.90
2022-08-20T03:05:59.641Z,99.90
2022-08-20T03:08:33.978Z,99.90
2022-08-20T03:11:08.101Z,99.90
2022-08-20T03:13:41.592Z,99.90
2022-08-20T03:16:16.851Z,99.90
2022-08-20T03:18:52.198Z,99.90
2022-08-20T03:21:26.615Z,99.90
2022-08-20T03:24:00.256Z,99.90
2022-08-20T03:26:33.940Z,99.90
2022-08-20T03:29:07.424Z,99.90
2022-08-20T03:31:42.310Z,99.90
2022-08-20T03:34:15.792Z,99.90
2022-08-20T03:36:49.278Z,99.90
2022-08-20T03:39:22.676Z,99.90
2022-08-20T03:41:56.275Z,99.90
2022-08-20T03:44:29.683Z,99.90
2022-08-20T03:47:09.542Z,99.90
2022-08-20T03:49:42.896Z,99.90
2022-08-20T03:52:17.749Z,99.90
2022-08-20T03:54:51.260Z,99.90
2022-08-20T03:57:25.561Z,99.90
2022-08-20T03:59:59.053Z,99.90
2022-08-20T04:02:34.322Z,99.90
2022-08-20T04:05:08.595Z,99.90
2022-08-20T04:07:42.500Z,99.90
2022-08-20T04:10:16.134Z,99.90
2022-08-20T04:12:53.148Z,99.90
2022-08-20T04:15:26.825Z,99.90
2022-08-20T04:18:03.858Z,99.90
2022-08-20T04:20:40.226Z,99.90
2022-08-20T04:23:14.248Z,99.90
2022-08-20T04:25:47.938Z,99.90
2022-08-20T04:28:24.909Z,99.90
2022-08-20T04:31:00.816Z,99.90
2022-08-20T04:33:35.665Z,99.90
2022-08-20T04:36:09.287Z,99.90
2022-08-20T04:38:49.759Z,99.90
2022-08-20T04:41:25.608Z,99.90
2022-08-20T04:43:59.318Z,99.90
2022-08-20T04:46:33.242Z,99.90
2022-08-20T04:49:08.658Z,99.90
2022-08-20T04:51:42.121Z,99.90
2022-08-20T04:54:16.017Z,99.90
2022-08-20T04:56:50.145Z,99.90
2022-08-20T04:59:23.592Z,99.90
2022-08-20T05:01:57.041Z,99.90
2022-08-20T05:04:31.835Z,99.90
2022-08-20T05:07:05.663Z,99.90
2022-08-20T05:09:43.815Z,99.90
2022-08-20T05:12:18.216Z,99.90
2022-08-20T05:14:51.650Z,99.90
2022-08-20T05:17:25.028Z,99.90
2022-08-20T05:20:00.527Z,99.90
2022-08-20T05:23:09.548Z,99.90
2022-08-20T05:25:44.845Z,99.90
2022-08-20T05:28:20.444Z,99.90
2022-08-20T05:30:54.912Z,99.90
2022-08-20T05:33:30.092Z,99.90
2022-08-20T05:36:07.501Z,99.90
2022-08-20T05:38:40.971Z,99.90
2022-08-20T05:41:27.565Z,99.90
2022-08-20T05:44:03.385Z,99.90
2022-08-20T05:46:39.531Z,99.90
2022-08-20T05:49:15.629Z,99.90
2022-08-20T05:51:52.191Z,99.90
2022-08-20T05:54:26.125Z,99.90
2022-08-20T05:56:59.787Z,99.90
2022-08-20T05:59:34.793Z,99.90
2022-08-20T06:02:28.681Z,99.90
2022-08-20T06:05:01.503Z,99.90
2022-08-20T06:07:36.255Z,99.90
2022-08-20T06:10:11.545Z,99.90
2022-08-20T06:12:45.566Z,99.90
2022-08-20T06:15:18.979Z,99.90
2022-08-20T06:17:58.204Z,99.90
2022-08-20T06:20:32.077Z,99.90
2022-08-20T06:23:07.580Z,99.90
2022-08-20T06:25:41.265Z,99.90
2022-08-20T06:28:15.618Z,99.90
2022-08-20T06:30:49.022Z,99.90
2022-08-20T06:33:22.426Z,99.90
2022-08-20T06:35:55.930Z,99.90
2022-08-20T06:38:32.668Z,99.90
2022-08-20T06:41:06.344Z,99.90
2022-08-20T06:43:39.749Z,99.90
2022-08-20T06:46:13.205Z,99.90
2022-08-20T06:48:46.765Z,99.90
2022-08-20T06:51:20.849Z,99.90
2022-08-20T06:53:55.642Z,99.90
2022-08-20T06:56:29.044Z,99.90
2022-08-20T06:59:02.633Z,99.90
2022-08-20T07:01:36.066Z,99.90
2022-08-20T07:04:10.011Z,99.90
2022-08-20T07:06:43.794Z,99.90
2022-08-20T07:09:18.799Z,99.90
2022-08-20T07:11:52.485Z,99.90
2022-08-20T07:14:26.369Z,99.90
2022-08-20T07:16:59.747Z,99.90
2022-08-20T07:19:33.508Z,99.90
2022-08-20T07:22:07.051Z,99.90
2022-08-20T07:24:44.899Z,99.90
2022-08-20T07:27:25.079Z,99.90
2022-08-20T07:30:15.700Z,99.90
2022-08-20T07:32:51.896Z,99.90
2022-08-20T07:35:25.477Z,99.90
2022-08-20T07:37:58.935Z,99.90
2022-08-20T07:40:36.152Z,99.90
2022-08-20T07:43:10.005Z,99.90
2022-08-20T07:45:45.262Z,99.90
2022-08-20T07:48:31.085Z,99.90
2022-08-20T07:51:07.279Z,99.90
2022-08-20T07:53:41.845Z,99.90
2022-08-20T07:56:19.332Z,99.90
2022-08-20T07:58:56.303Z,99.90
2022-08-20T08:01:32.284Z,99.90
2022-08-20T08:04:05.959Z,99.90
2022-08-20T08:06:45.458Z,99.90
2022-08-20T08:09:19.191Z,99.90
2022-08-20T08:11:57.592Z,99.90
2022-08-20T08:14:34.650Z,99.90
2022-08-20T08:17:09.182Z,99.90
2022-08-20T08:19:45.211Z,99.90
2022-08-20T08:22:20.484Z,99.90
2022-08-20T08:24:56.705Z,99.90
2022-08-20T08:27:34.235Z,99.90
2022-08-20T08:30:08.991Z,99.90
2022-08-20T08:33:02.903Z,99.90
2022-08-20T08:35:38.887Z,99.90
2022-08-20T08:38:15.474Z,99.90
2022-08-20T08:40:52.223Z,99.90
2022-08-20T08:43:34.687Z,99.90
2022-08-20T08:46:12.229Z,99.90
2022-08-20T08:48:47.873Z,99.90
2022-08-20T08:51:27.896Z,99.90
2022-08-20T08:54:06.711Z,99.90
2022-08-20T08:56:41.350Z,99.90
2022-08-20T08:59:16.134Z,99.40
2022-08-20T09:01:56.980Z,95.60
2022-08-20T09:04:35.772Z,96.40
2022-08-20T09:07:12.446Z,96.80
2022-08-20T09:09:48.132Z,96.20
2022-08-20T09:12:24.769Z,96.20
2022-08-20T09:15:00.015Z,96.40
2022-08-20T09:17:33.389Z,94.40
2022-08-20T09:20:09.641Z,93.90
2022-08-20T09:22:43.146Z,94.40
2022-08-20T09:25:16.554Z,93.30
2022-08-20T09:27:49.925Z,94.70
2022-08-20T09:30:25.765Z,92.20
2022-08-20T09:33:00.618Z,91.20
2022-08-20T09:35:34.536Z,90.50
2022-08-20T09:38:08.162Z,88.40
2022-08-20T09:40:41.864Z,89.60
2022-08-20T09:43:15.284Z,84.30
2022-08-20T09:45:50.176Z,79.70
2022-08-20T09:48:29.722Z,81.00
2022-08-20T09:51:06.160Z,79.60
2022-08-20T09:53:39.605Z,80.00
2022-08-20T09:56:13.787Z,78.20
2022-08-20T09:58:50.508Z,79.30
2022-08-20T10:01:25.266Z,76.10
2022-08-20T10:03:58.838Z,74.10
2022-08-20T10:06:37.192Z,73.80
2022-08-20T10:09:11.182Z,73.70
2022-08-20T10:11:44.671Z,72.30
2022-08-20T10:14:18.214Z,72.90
2022-08-20T10:16:59.825Z,70.70
2022-08-20T10:19:34.116Z,71.00
2022-08-20T10:22:07.716Z,69.00
2022-08-20T10:24:43.259Z,69.50
2022-08-20T10:27:17.005Z,69.70
2022-08-20T10:29:51.008Z,66.60
2022-08-20T10:32:25.907Z,67.70
2022-08-20T10:34:59.550Z,64.90
2022-08-20T10:37:34.749Z,65.90
2022-08-20T10:40:09.903Z,65.10
2022-08-20T10:42:43.872Z,65.10
2022-08-20T10:45:17.810Z,67.50
2022-08-20T10:47:52.630Z,67.60
2022-08-20T10:50:26.498Z,65.10
2022-08-20T10:53:04.034Z,66.20
2022-08-20T10:55:37.454Z,65.40
2022-08-20T10:58:11.454Z,66.30
2022-08-20T11:00:45.827Z,66.00
2022-08-20T11:03:22.177Z,64.30
2022-08-20T11:05:55.729Z,63.70
2022-08-20T11:08:34.150Z,65.30
2022-08-20T11:11:09.689Z,65.80
2022-08-20T11:13:43.106Z,64.40
2022-08-20T11:16:16.598Z,63.00
2022-08-20T11:18:51.353Z,63.70
2022-08-20T11:21:24.738Z,64.60
2022-08-20T11:24:02.242Z,66.40
2022-08-20T11:26:36.280Z,64.00
2022-08-20T11:29:09.948Z,62.80
2022-08-20T11:31:43.405Z,62.50
2022-08-20T11:34:18.475Z,64.70
2022-08-20T11:36:52.940Z,62.10
2022-08-20T11:39:26.412Z,63.40
2022-08-20T11:41:59.837Z,63.20
2022-08-20T11:44:33.219Z,62.50
2022-08-20T11:47:07.930Z,63.10
2022-08-20T11:49:42.685Z,64.20
2022-08-20T11:52:16.034Z,64.00
2022-08-20T11:54:54.391Z,62.20
2022-08-20T11:57:30.867Z,62.90
2022-08-20T12:00:10.199Z,61.80
2022-08-20T12:02:43.961Z,60.40
2022-08-20T12:05:19.621Z,61.50
2022-08-20T12:07:53.139Z,62.60
2022-08-20T12:10:28.130Z,63.30
2022-08-20T12:13:02.686Z,61.40
2022-08-20T12:15:38.749Z,62.40
2022-08-20T12:18:12.366Z,61.00
2022-08-20T12:20:47.163Z,61.50
2022-08-20T12:23:24.192Z,59.90
2022-08-20T12:25:59.291Z,63.70
2022-08-20T12:28:34.449Z,64.00
2022-08-20T12:31:08.091Z,67.30
2022-08-20T12:33:41.603Z,68.20
2022-08-20T12:36:16.408Z,69.30
2022-08-20T12:38:49.769Z,70.40
2022-08-20T12:41:23.141Z,72.00
2022-08-20T12:43:56.520Z,72.00
2022-08-20T12:46:29.957Z,73.70
2022-08-20T12:49:03.337Z,72.10
2022-08-20T12:51:38.140Z,72.90
2022-08-20T12:54:11.540Z,73.30
2022-08-20T12:56:44.897Z,74.30
2022-08-20T12:59:19.697Z,75.00
2022-08-20T13:01:55.494Z,75.30
2022-08-20T13:04:28.947Z,78.70
2022-08-20T13:07:04.390Z,80.30
2022-08-20T13:09:37.808Z,79.00
2022-08-20T13:12:15.349Z,80.70
2022-08-20T13:14:48.779Z,81.00
2022-08-20T13:17:33.659Z,81.40
2022-08-20T13:20:15.283Z,83.00
2022-08-20T13:22:50.100Z,84.70
2022-08-20T13:25:24.812Z,83.60
2022-08-20T13:28:05.031Z,85.90
2022-08-20T13:30:40.978Z,87.90
2022-08-20T13:33:14.370Z,88.80
2022-08-20T13:35:47.757Z,89.10
2022-08-20T13:38:22.747Z,90.00
2022-08-20T13:40:58.402Z,90.30
2022-08-20T13:43:31.835Z,90.80
2022-08-20T13:46:06.554Z,91.70
2022-08-20T13:48:39.951Z,91.50
2022-08-20T13:51:13.631Z,91.40
2022-08-20T13:53:53.916Z,91.10
2022-08-20T13:56:27.305Z,91.90
2022-08-20T13:59:00.734Z,92.70
2022-08-20T14:01:34.161Z,93.60
2022-08-20T14:04:07.760Z,94.60
2022-08-20T14:06:41.234Z,93.70
2022-08-20T14:09:16.039Z,92.40
2022-08-20T14:11:49.484Z,92.10
2022-08-20T14:14:22.912Z,92.20
2022-08-20T14:16:56.449Z,92.10
2022-08-20T14:19:29.858Z,92.70
2022-08-20T14:22:03.272Z,92.80
2022-08-20T14:24:38.126Z,92.40
2022-08-20T14:27:11.758Z,92.90
2022-08-20T14:29:46.625Z,93.30
2022-08-20T14:32:20.232Z,93.50
2022-08-20T14:34:53.688Z,94.00
2022-08-20T14:37:29.449Z,94.70
2022-08-20T14:40:07.141Z,95.40
2022-08-20T14:42:41.235Z,95.90
2022-08-20T14:45:17.529Z,96.30
2022-08-20T14:47:54.289Z,96.80
2022-08-20T14:50:30.360Z,97.40
2022-08-20T14:53:04.028Z,98.10
2022-08-20T14:55:39.914Z,99.30
2022-08-20T14:58:15.158Z,99.90
2022-08-20T15:00:48.676Z,99.90
2022-08-20T15:03:28.742Z,99.90
2022-08-20T15:06:02.129Z,99.90
2022-08-20T15:08:35.880Z,99.90
2022-08-20T15:11:10.577Z,99.90
2022-08-20T15:13:43.941Z,99.90
2022-08-20T15:16:17.487Z,99.90
2022-08-20T15:18:50.882Z,99.90
2022-08-20T15:21:44.957Z,99.90
2022-08-20T15:24:19.691Z,99.90
2022-08-20T15:26:54.668Z,99.90
2022-08-20T15:29:28.157Z,99.90
2022-08-20T15:32:01.544Z,99.90
2022-08-20T15:34:35.015Z,99.90
2022-08-20T15:37:10.580Z,99.90
2022-08-20T15:39:45.318Z,99.90
2022-08-20T15:42:21.338Z,99.90
2022-08-20T15:44:54.709Z,99.90
2022-08-20T15:47:30.892Z,99.90
2022-08-20T15:50:13.891Z,99.90
2022-08-20T15:52:47.755Z,99.90
2022-08-20T15:55:21.223Z,99.90
2022-08-20T15:58:08.117Z,99.90
2022-08-20T16:00:46.275Z,99.90
2022-08-20T16:03:33.551Z,99.90
2022-08-20T16:06:13.880Z,99.90
2022-08-20T16:09:08.512Z,99.90
2022-08-20T16:11:50.566Z,99.90
2022-08-20T16:14:29.172Z,99.90
2022-08-20T16:17:07.899Z,99.90
2022-08-20T16:19:52.189Z,99.90
2022-08-20T16:22:29.636Z,99.90
2022-08-20T16:25:03.679Z,99.90
2022-08-20T16:27:46.271Z,99.90
2022-08-20T16:30:22.471Z,99.90
2022-08-20T16:33:01.061Z,99.90
2022-08-20T16:35:36.795Z,99.90
2022-08-20T16:38:20.879Z,99.90
2022-08-20T16:40:59.376Z,99.90
2022-08-20T16:43:36.083Z,99.90
2022-08-20T16:46:17.579Z,99.90
2022-08-20T16:49:05.668Z,99.90
2022-08-20T16:51:42.728Z,99.90
2022-08-20T16:54:16.884Z,99.90
2022-08-20T16:57:00.341Z,99.90
2022-08-20T16:59:34.921Z,99.90
2022-08-20T17:02:12.204Z,99.90
2022-08-20T17:04:58.826Z,99.90
2022-08-20T17:07:46.265Z,99.90
2022-08-20T17:10:23.563Z,99.90
2022-08-20T17:12:59.861Z,99.90
2022-08-20T17:15:36.237Z,99.90
2022-08-20T17:18:22.217Z,99.90
2022-08-20T17:21:00.373Z,99.90
2022-08-20T17:23:54.605Z,99.90
2022-08-20T17:26:32.269Z,99.90
2022-08-20T17:29:14.510Z,99.90
2022-08-20T17:31:50.463Z,99.90
2022-08-20T17:34:27.890Z,99.90
2022-08-20T17:37:06.547Z,99.90
2022-08-20T17:39:48.096Z,99.90
2022-08-20T17:42:25.495Z,99.90
2022-08-20T17:45:06.172Z,99.90
2022-08-20T17:47:41.209Z,99.90
2022-08-20T17:50:20.191Z,99.90
2022-08-20T17:52:58.370Z,99.90
2022-08-20T17:55:35.208Z,99.90
2022-08-20T17:58:13.609Z,99.90
2022-08-20T18:00:47.294Z,99.90
2022-08-20T18:03:23.466Z,99.90
2022-08-20T18:06:01.267Z,99.90
2022-08-20T18:08:43.638Z,99.90
2022-08-20T18:11:28.362Z,99.90
2022-08-20T18:14:21.397Z,99.90
2022-08-20T18:17:15.616Z,99.90
2022-08-20T18:20:14.241Z,99.90
2022-08-20T18:22:55.496Z,99.90
2022-08-20T18:25:36.647Z,99.90
2022-08-20T18:28:17.257Z,99.90
2022-08-20T18:30:53.932Z,99.90
2022-08-20T18:33:32.505Z,99.90
2022-08-20T18:36:10.327Z,99.90
2022-08-20T18:38:58.897Z,99.90
2022-08-20T18:41:35.586Z,99.90
2022-08-20T18:44:12.009Z,99.90
2022-08-20T18:46:53.994Z,99.90
2022-08-20T18:49:30.840Z,99.90
2022-08-20T18:52:12.264Z,99.90
2022-08-20T18:54:54.150Z,99.90
2022-08-20T18:57:30.539Z,99.90
2022-08-20T19:00:19.469Z,99.90
2022-08-20T19:02:57.007Z,99.90
2022-08-20T19:05:37.821Z,99.90
2022-08-20T19:08:13.631Z,99.90
2022-08-20T19:10:54.444Z,99.90
2022-08-20T19:14:00.868Z,99.90
2022-08-20T19:16:40.238Z,99.90
2022-08-20T19:19:17.628Z,99.90
2022-08-20T19:21:52.076Z,99.90
2022-08-20T19:24:29.000Z,99.90
2022-08-20T19:27:07.879Z,99.90
2022-08-20T19:29:44.314Z,99.90
2022-08-20T19:32:20.988Z,99.90
2022-08-20T19:34:56.998Z,99.90
2022-08-20T19:37:39.991Z,99.90
2022-08-20T19:40:28.365Z,99.90
2022-08-20T19:43:07.001Z,99.90
2022-08-20T19:45:43.924Z,99.90
2022-08-20T19:48:32.180Z,99.90
2022-08-20T19:51:14.208Z,99.90
2022-08-20T19:53:49.927Z,99.90
2022-08-20T19:56:25.803Z,99.90
2022-08-20T19:59:03.443Z,99.90
2022-08-20T20:01:36.966Z,99.90
2022-08-20T20:04:18.202Z,99.90
2022-08-20T20:06:52.516Z,99.90
2022-08-20T20:09:28.995Z,99.90
2022-08-20T20:12:09.893Z,99.90
2022-08-20T20:14:57.428Z,99.90
2022-08-20T20:17:36.233Z,99.90
2022-08-20T20:20:22.167Z,99.90
2022-08-20T20:23:00.048Z,99.90
2022-08-20T20:25:44.363Z,99.90
2022-08-20T20:28:22.699Z,99.90
2022-08-20T20:31:07.054Z,99.90
2022-08-20T20:33:44.409Z,99.90
2022-08-20T20:36:19.862Z,99.90
2022-08-20T20:39:00.500Z,99.90
2022-08-20T20:41:35.960Z,99.90
2022-08-20T20:44:22.453Z,99.90
2022-08-20T20:47:02.958Z,99.90
2022-08-20T20:49:48.654Z,99.90
2022-08-20T20:52:28.486Z,99.90
2022-08-20T20:55:11.893Z,99.90
2022-08-20T20:57:45.261Z,99.90
2022-08-20T21:00:22.330Z,99.90
2022-08-20T21:02:57.484Z,99.90
2022-08-20T21:05:34.453Z,99.90
2022-08-20T21:08:11.352Z,99.90
2022-08-20T21:10:44.962Z,99.90
2022-08-20T21:13:18.497Z,99.90
2022-08-20T21:15:51.912Z,99.90
2022-08-20T21:18:26.681Z,99.90
2022-08-20T21:21:00.053Z,99.90
2022-08-20T21:23:40.238Z,99.90
2022-08-20T21:26:15.482Z,99.90
2022-08-20T21:28:49.033Z,99.90
2022-08-20T21:31:22.458Z,99.90
2022-08-20T21:33:57.473Z,99.90
2022-08-20T21:36:30.934Z,99.90
2022-08-20T21:39:05.215Z,99.90
2022-08-20T21:41:39.357Z,99.90
2022-08-20T21:44:21.744Z,99.90
2022-08-20T21:46:56.529Z,99.90
2022-08-20T21:49:33.037Z,99.90
2022-08-20T21:52:06.811Z,99.90
2022-08-20T21:54:40.231Z,99.90
2022-08-20T21:57:21.254Z,99.90
2022-08-20T21:59:55.168Z,99.90
2022-08-20T22:02:30.188Z,99.90
2022-08-20T22:05:05.703Z,99.90
2022-08-20T22:07:39.503Z,99.90
2022-08-20T22:10:12.869Z,99.90
2022-08-20T22:12:46.609Z,99.90
2022-08-20T22:15:20.178Z,99.90
2022-08-20T22:17:53.945Z,99.90
2022-08-20T22:20:28.905Z,99.90
2022-08-20T22:23:04.224Z,99.90
2022-08-20T22:25:38.024Z,99.90
2022-08-20T22:28:11.762Z,99.90
2022-08-20T22:30:45.493Z,99.90
2022-08-20T22:33:23.296Z,99.90
2022-08-20T22:35:59.213Z,99.90
2022-08-20T22:38:33.050Z,99.90
2022-08-20T22:41:09.571Z,99.90
2022-08-20T22:43:55.829Z,99.90
2022-08-20T22:46:34.830Z,99.90
2022-08-20T22:49:12.285Z,99.90
2022-08-20T22:51:47.295Z,99.90
2022-08-20T22:54:23.803Z,99.90
2022-08-20T22:56:57.540Z,99.90
2022-08-20T22:59:31.180Z,99.90
2022-08-20T23:02:08.460Z,99.90
2022-08-20T23:04:42.246Z,99.90
2022-08-20T23:07:17.857Z,99.90
2022-08-20T23:09:51.309Z,99.90
2022-08-20T23:12:24.885Z,99.90
2022-08-20T23:14:58.425Z,99.90
2022-08-20T23:17:32.108Z,99.90
2022-08-20T23:20:06.290Z,99.90
2022-08-20T23:22:41.164Z,99.90
2022-08-20T23:25:15.399Z,99.90
2022-08-20T23:27:51.168Z,99.90
2022-08-20T23:30:26.292Z,99.90
2022-08-20T23:33:01.585Z,99.90
2022-08-20T23:35:35.849Z,99.90
2022-08-20T23:38:11.409Z,99.90
2022-08-20T23:40:45.235Z,99.90
2022-08-20T23:43:18.954Z,99.90
2022-08-20T23:45:52.767Z,99.90
2022-08-20T23:48:26.626Z,99.90
2022-08-20T23:51:00.018Z,99.90
2022-08-20T23:53:35.075Z,99.90
2022-08-20T23:56:08.766Z,99.90
2022-08-20T23:58:42.242Z,99.90
